createdAt,value
2022-08-01T00:00:11.387Z,100507.63
2022-08-01T00:02:40.058Z,100502.22
2022-08-01T00:05:09.981Z,100505.09
2022-08-01T00:07:38.587Z,100493.28
2022-08-01T00:10:11.045Z,100495.66
2022-08-01T00:12:39.290Z,100490.28
2022-08-01T00:15:09.954Z,100491.28
2022-08-01T00:17:38.290Z,100496.50
2022-08-01T00:20:09.474Z,100456.56
2022-08-01T00:22:38.111Z,100497.38
2022-08-01T00:25:09.619Z,100468.69
2022-08-01T00:27:38.035Z,100495.66
2022-08-01T00:30:11.575Z,100492.78
2022-08-01T00:32:43.264Z,100492.97
2022-08-01T00:35:11.886Z,100468.34
2022-08-01T00:37:40.248Z,100486.59
2022-08-01T00:40:10.959Z,100481.19
2022-08-01T00:42:43.343Z,100481.19
2022-08-01T00:45:12.439Z,100485.72
2022-08-01T00:47:41.005Z,100479.50
2022-08-01T00:50:10.374Z,100478.66
2022-08-01T00:52:41.931Z,100479.50
2022-08-01T00:55:14.975Z,100467.88
2022-08-01T00:58:03.363Z,100472.44
2022-08-01T01:00:32.979Z,100461.66
2022-08-01T01:03:03.343Z,100469.72
2022-08-01T01:05:37.301Z,100457.28
2022-08-01T01:08:10.795Z,100461.66
2022-08-01T01:10:48.416Z,100456.25
2022-08-01T01:13:23.017Z,100462.50
2022-08-01T01:15:57.525Z,100449.84
2022-08-01T01:18:31.134Z,100456.25
2022-08-01T01:21:07.721Z,100457.13
2022-08-01T01:23:52.857Z,100450.88
2022-08-01T01:26:41.045Z,100450.88
2022-08-01T01:29:18.269Z,100450.88
2022-08-01T01:31:50.905Z,100450.03
2022-08-01T01:34:22.155Z,100448.19
2022-08-01T01:36:54.345Z,100450.88
2022-08-01T01:39:23.776Z,100441.78
2022-08-01T01:41:53.726Z,100444.47
2022-08-01T01:44:23.388Z,100451.72
2022-08-01T01:46:53.667Z,100449.84
2022-08-01T01:49:25.939Z,100445.47
2022-08-01T01:52:02.733Z,100438.41
2022-08-01T01:54:35.165Z,100442.78
2022-08-01T01:57:05.824Z,100440.09
2022-08-01T01:59:38.486Z,100435.56
2022-08-01T02:02:09.196Z,100434.72
2022-08-01T02:04:40.422Z,100437.22
2022-08-01T02:07:11.011Z,100431.00
2022-08-01T02:09:42.425Z,100426.97
2022-08-01T02:12:14.087Z,100430.16
2022-08-01T02:14:46.238Z,100421.94
2022-08-01T02:17:17.821Z,100423.94
2022-08-01T02:19:46.362Z,100420.22
2022-08-01T02:22:31.528Z,100418.22
2022-08-01T02:25:08.096Z,100423.59
2022-08-01T02:27:42.695Z,100420.22
2022-08-01T02:30:16.069Z,100414.81
2022-08-01T02:32:48.467Z,100414.00
2022-08-01T02:35:22.918Z,100410.47
2022-08-01T02:37:51.985Z,100406.09
2022-08-01T02:40:20.388Z,100407.75
2022-08-01T02:42:52.054Z,100390.59
2022-08-01T02:45:25.087Z,100397.00
2022-08-01T02:47:56.139Z,100402.38
2022-08-01T02:50:27.285Z,100393.97
2022-08-01T02:52:57.469Z,100402.03
2022-08-01T02:55:26.612Z,100402.22
2022-08-01T02:58:00.918Z,100400.38
2022-08-01T03:00:31.801Z,100405.75
2022-08-01T03:03:01.926Z,100394.97
2022-08-01T03:05:30.508Z,100405.75
2022-08-01T03:08:03.553Z,100394.97
2022-08-01T03:10:33.066Z,100392.44
2022-08-01T03:13:04.076Z,100394.13
2022-08-01T03:15:36.104Z,100398.66
2022-08-01T03:18:07.523Z,100394.13
2022-08-01T03:20:36.442Z,100393.28
2022-08-01T03:23:09.010Z,100386.53
2022-08-01T03:25:40.863Z,100388.91
2022-08-01T03:28:10.664Z,100355.88
2022-08-01T03:30:41.987Z,100386.22
2022-08-01T03:33:11.345Z,100388.91
2022-08-01T03:35:51.922Z,100386.22
2022-08-01T03:38:25.393Z,100391.59
2022-08-01T03:40:57.941Z,100397.00
2022-08-01T03:43:34.185Z,100397.00
2022-08-01T03:46:08.949Z,100393.28
2022-08-01T03:48:41.811Z,100397.00
2022-08-01T03:51:11.141Z,100391.59
2022-08-01T03:53:42.355Z,100389.94
2022-08-01T03:56:12.572Z,100382.50
2022-08-01T03:58:44.124Z,100387.88
2022-08-01T04:01:20.470Z,100381.69
2022-08-01T04:03:48.802Z,100378.81
2022-08-01T04:06:16.910Z,100376.47
2022-08-01T04:08:56.669Z,100383.34
2022-08-01T04:11:27.019Z,100382.50
2022-08-01T04:13:55.936Z,100380.81
2022-08-01T04:16:25.486Z,100381.50
2022-08-01T04:18:53.772Z,100377.97
2022-08-01T04:21:28.750Z,100389.59
2022-08-01T04:24:00.276Z,100379.81
2022-08-01T04:26:32.073Z,100382.50
2022-08-01T04:29:03.670Z,100378.13
2022-08-01T04:31:35.269Z,100381.69
2022-08-01T04:34:05.987Z,100375.44
2022-08-01T04:36:36.995Z,100384.22
2022-08-01T04:39:08.343Z,100383.34
2022-08-01T04:41:37.607Z,100384.22
2022-08-01T04:44:07.052Z,100373.75
2022-08-01T04:46:38.009Z,100386.03
2022-08-01T04:49:08.903Z,100371.72
2022-08-01T04:51:37.586Z,100353.53
2022-08-01T04:54:09.625Z,100380.81
2022-08-01T04:56:37.904Z,100383.84
2022-08-01T04:59:25.546Z,100380.81
2022-08-01T05:01:55.097Z,100379.16
2022-08-01T05:04:23.454Z,100389.75
2022-08-01T05:06:51.536Z,100394.97
2022-08-01T05:09:19.734Z,100400.38
2022-08-01T05:11:47.680Z,100396.66
2022-08-01T05:14:15.867Z,100394.97
2022-08-01T05:16:43.863Z,100392.28
2022-08-01T05:19:13.983Z,100398.66
2022-08-01T05:21:43.195Z,100397.69
2022-08-01T05:24:11.258Z,100391.94
2022-08-01T05:26:39.860Z,100392.63
2022-08-01T05:29:08.936Z,100402.72
2022-08-01T05:31:36.962Z,100391.94
2022-08-01T05:34:06.071Z,100402.53
2022-08-01T05:36:44.681Z,100405.06
2022-08-01T05:39:13.869Z,100374.56
2022-08-01T05:41:42.435Z,100403.72
2022-08-01T05:44:11.412Z,100405.44
2022-08-01T05:46:39.577Z,100401.03
2022-08-01T05:49:07.950Z,100407.09
2022-08-01T05:51:35.994Z,100406.25
2022-08-01T05:54:06.853Z,100383.81
2022-08-01T05:56:35.064Z,100414.50
2022-08-01T05:59:03.430Z,100414.50
2022-08-01T06:01:31.610Z,100412.81
2022-08-01T06:03:59.791Z,100413.69
2022-08-01T06:06:28.184Z,100410.13
2022-08-01T06:08:56.362Z,100412.81
2022-08-01T06:11:25.654Z,100409.09
2022-08-01T06:13:54.933Z,100406.59
2022-08-01T06:16:23.075Z,100404.06
2022-08-01T06:18:54.953Z,100377.09
2022-08-01T06:21:25.032Z,100403.72
2022-08-01T06:23:53.023Z,100414.50
2022-08-01T06:26:21.710Z,100409.97
2022-08-01T06:28:51.364Z,100417.88
2022-08-01T06:31:19.280Z,100426.97
2022-08-01T06:33:47.510Z,100426.97
2022-08-01T06:36:15.477Z,100423.25
2022-08-01T06:38:43.720Z,100420.56
2022-08-01T06:41:11.796Z,100427.81
2022-08-01T06:43:39.783Z,100426.97
2022-08-01T06:46:11.553Z,100428.66
2022-08-01T06:48:40.525Z,100421.59
2022-08-01T06:51:14.640Z,100426.97
2022-08-01T06:53:43.875Z,100425.28
2022-08-01T06:56:12.955Z,100424.28
2022-08-01T06:58:41.575Z,100429.69
2022-08-01T07:01:11.019Z,100427.97
2022-08-01T07:03:53.320Z,100427.97
2022-08-01T07:06:22.221Z,100432.38
2022-08-01T07:08:50.513Z,100409.09
2022-08-01T07:11:18.695Z,100436.91
2022-08-01T07:13:47.655Z,100445.16
2022-08-01T07:16:17.965Z,100434.38
2022-08-01T07:18:46.559Z,100441.44
2022-08-01T07:21:38.244Z,100438.75
2022-08-01T07:24:09.276Z,100446.00
2022-08-01T07:26:53.384Z,100445.16
2022-08-01T07:29:23.947Z,100443.47
2022-08-01T07:31:54.168Z,100437.22
2022-08-01T07:34:22.659Z,100434.72
2022-08-01T07:36:50.626Z,100438.09
2022-08-01T07:39:18.911Z,100437.94
2022-08-01T07:42:06.797Z,100438.59
2022-08-01T07:44:35.429Z,100432.38
2022-08-01T07:47:05.907Z,100432.38
2022-08-01T07:49:39.590Z,100437.75
2022-08-01T07:52:08.705Z,100430.66
2022-08-01T07:54:36.761Z,100440.63
2022-08-01T07:57:06.638Z,100446.84
2022-08-01T07:59:35.205Z,100436.06
2022-08-01T08:02:04.974Z,100439.78
2022-08-01T08:04:33.370Z,100434.38
2022-08-01T08:07:01.463Z,100430.66
2022-08-01T08:09:29.595Z,100451.22
2022-08-01T08:11:57.677Z,100448.53
2022-08-01T08:14:32.308Z,100446.00
2022-08-01T08:17:02.004Z,100451.22
2022-08-01T08:19:37.429Z,100453.94
2022-08-01T08:22:07.304Z,100453.94
2022-08-01T08:24:35.953Z,100444.47
2022-08-01T08:27:04.953Z,100446.84
2022-08-01T08:29:34.010Z,100440.63
2022-08-01T08:32:03.176Z,100447.69
2022-08-01T08:34:32.474Z,100448.53
2022-08-01T08:37:01.475Z,100446.84
2022-08-01T08:39:31.103Z,100452.22
2022-08-01T08:42:11.130Z,100444.78
2022-08-01T08:44:43.716Z,100450.53
2022-08-01T08:47:19.064Z,100423.91
2022-08-01T08:49:51.082Z,100455.94
2022-08-01T08:52:21.877Z,100459.66
2022-08-01T08:54:51.379Z,100461.31
2022-08-01T08:57:21.798Z,100463.00
2022-08-01T08:59:52.328Z,100472.09
2022-08-01T09:02:20.518Z,100463.31
2022-08-01T09:04:50.954Z,100449.19
2022-08-01T09:07:18.927Z,100459.31
2022-08-01T09:09:49.430Z,100477.16
2022-08-01T09:12:18.999Z,100475.47
2022-08-01T09:14:48.570Z,100466.72
2022-08-01T09:17:17.686Z,100472.09
2022-08-01T09:19:49.390Z,100470.09
2022-08-01T09:22:22.370Z,100465.84
2022-08-01T09:25:02.071Z,100470.91
2022-08-01T09:27:31.281Z,100480.03
2022-08-01T09:30:11.422Z,100480.88
2022-08-01T09:32:56.596Z,100486.25
2022-08-01T09:35:30.152Z,100471.78
2022-08-01T09:38:19.900Z,100477.16
2022-08-01T09:40:54.042Z,100480.88
2022-08-01T09:43:24.176Z,100485.41
2022-08-01T09:45:53.272Z,100486.25
2022-08-01T09:48:28.621Z,100487.94
2022-08-01T09:51:00.899Z,100483.72
2022-08-01T09:53:50.904Z,100487.94
2022-08-01T09:56:22.050Z,100483.56
2022-08-01T09:59:01.645Z,100482.53
2022-08-01T10:01:36.627Z,100495.00
2022-08-01T10:04:11.678Z,100474.44
2022-08-01T10:06:40.911Z,100499.56
2022-08-01T10:09:11.687Z,100495.00
2022-08-01T10:11:45.015Z,100505.78
2022-08-01T10:14:18.038Z,100511.16
2022-08-01T10:16:53.792Z,100499.41
2022-08-01T10:19:28.718Z,100506.63
2022-08-01T10:22:00.580Z,100505.78
2022-08-01T10:24:33.511Z,100513.88
2022-08-01T10:27:09.130Z,100511.16
2022-08-01T10:29:59.111Z,100518.59
2022-08-01T10:32:32.130Z,100507.81
2022-08-01T10:35:06.541Z,100505.13
2022-08-01T10:37:36.231Z,100514.19
2022-08-01T10:40:31.002Z,100515.03
2022-08-01T10:43:00.777Z,100509.81
2022-08-01T10:45:30.557Z,100512.50
2022-08-01T10:48:05.653Z,100505.28
2022-08-01T10:50:37.380Z,100505.28
2022-08-01T10:53:31.847Z,100508.13
2022-08-01T10:56:12.871Z,100511.50
2022-08-01T10:58:45.555Z,100511.50
2022-08-01T11:01:22.687Z,100516.88
2022-08-01T11:04:16.527Z,100516.06
2022-08-01T11:06:55.789Z,100520.59
2022-08-01T11:09:37.029Z,100527.66
2022-08-01T11:12:13.686Z,100516.22
2022-08-01T11:15:29.902Z,100531.38
2022-08-01T11:18:01.824Z,100529.69
2022-08-01T11:20:36.068Z,100540.47
2022-08-01T11:23:21.691Z,100533.06
2022-08-01T11:26:18.116Z,100532.06
2022-08-01T11:29:21.985Z,100534.06
2022-08-01T11:31:52.885Z,100535.09
2022-08-01T11:34:21.831Z,100533.06
2022-08-01T11:36:59.443Z,100537.63
2022-08-01T11:39:28.031Z,100538.44
2022-08-01T11:41:59.540Z,100541.81
2022-08-01T11:44:30.277Z,100542.84
2022-08-01T11:47:08.924Z,100542.84
2022-08-01T11:49:59.192Z,100550.94
2022-08-01T11:52:29.242Z,100541.28
2022-08-01T11:55:00.399Z,100550.94
2022-08-01T11:57:34.093Z,100557.13
2022-08-01T12:00:08.820Z,100556.16
2022-08-01T12:02:37.663Z,100558.00
2022-08-01T12:05:12.100Z,100559.66
2022-08-01T12:07:42.604Z,100552.06
2022-08-01T12:10:12.296Z,100561.38
2022-08-01T12:12:46.480Z,100565.06
2022-08-01T12:15:16.278Z,100558.00
2022-08-01T12:17:57.389Z,100558.00
2022-08-01T12:20:31.356Z,100565.38
2022-08-01T12:23:01.812Z,100567.09
2022-08-01T12:25:30.063Z,100567.91
2022-08-01T12:28:02.678Z,100573.16
2022-08-01T12:30:36.641Z,100563.38
2022-08-01T12:33:08.663Z,100563.38
2022-08-01T12:35:38.569Z,100565.06
2022-08-01T12:38:15.896Z,100550.19
2022-08-01T12:40:45.920Z,100574.16
2022-08-01T12:43:27.074Z,100573.31
2022-08-01T12:45:58.260Z,100575.19
2022-08-01T12:48:28.089Z,100548.50
2022-08-01T12:50:59.280Z,100567.75
2022-08-01T12:53:41.184Z,100565.06
2022-08-01T12:56:10.701Z,100572.31
2022-08-01T12:58:38.888Z,100575.84
2022-08-01T13:01:09.915Z,100578.53
2022-08-01T13:03:38.494Z,100565.72
2022-08-01T13:06:13.785Z,100579.22
2022-08-01T13:08:41.844Z,100573.84
2022-08-01T13:11:15.341Z,100578.38
2022-08-01T13:13:48.516Z,100575.84
2022-08-01T13:16:31.243Z,100577.88
2022-08-01T13:19:07.580Z,100584.09
2022-08-01T13:21:53.053Z,100580.56
2022-08-01T13:24:27.463Z,100587.63
2022-08-01T13:27:01.590Z,100584.94
2022-08-01T13:29:35.537Z,100579.56
2022-08-01T13:32:29.487Z,100577.88
2022-08-01T13:35:07.088Z,100583.25
2022-08-01T13:37:37.232Z,100588.66
2022-08-01T13:40:08.161Z,100582.72
2022-08-01T13:42:36.920Z,100587.78
2022-08-01T13:45:14.762Z,100584.94
2022-08-01T13:48:03.637Z,100590.31
2022-08-01T13:50:34.194Z,100600.25
2022-08-01T13:53:02.430Z,100591.34
2022-08-01T13:55:34.694Z,100587.78
2022-08-01T13:58:04.179Z,100592.31
2022-08-01T14:00:32.408Z,100587.78
2022-08-01T14:03:01.796Z,100595.72
2022-08-01T14:05:29.734Z,100595.72
2022-08-01T14:07:57.718Z,100600.41
2022-08-01T14:10:26.988Z,100602.78
2022-08-01T14:12:56.790Z,100596.56
2022-08-01T14:15:37.856Z,100602.78
2022-08-01T14:18:09.934Z,100601.09
2022-08-01T14:20:40.211Z,100601.09
2022-08-01T14:23:09.366Z,100611.88
2022-08-01T14:26:03.262Z,100610.03
2022-08-01T14:28:28.537Z,100618.94
2022-08-01T14:30:57.514Z,100606.50
2022-08-01T14:33:27.348Z,100609.88
2022-08-01T14:36:06.755Z,100611.03
2022-08-01T14:38:46.194Z,100608.34
2022-08-01T14:41:15.697Z,100615.59
2022-08-01T14:43:43.880Z,100611.03
2022-08-01T14:46:12.061Z,100603.78
2022-08-01T14:48:41.548Z,100611.88
2022-08-01T14:51:09.963Z,100611.88
2022-08-01T14:53:38.827Z,100610.19
2022-08-01T14:56:07.958Z,100600.06
2022-08-01T14:58:36.897Z,100617.28
2022-08-01T15:01:06.902Z,100609.34
2022-08-01T15:03:35.167Z,100615.59
2022-08-01T15:06:04.439Z,100605.13
2022-08-01T15:08:33.443Z,100604.81
2022-08-01T15:11:02.238Z,100612.75
2022-08-01T15:13:30.315Z,100618.28
2022-08-01T15:15:59.994Z,100602.06
2022-08-01T15:18:29.170Z,100629.72
2022-08-01T15:20:58.807Z,100619.28
2022-08-01T15:23:28.334Z,100623.34
2022-08-01T15:25:56.295Z,100626.06
2022-08-01T15:28:24.374Z,100629.72
2022-08-01T15:30:52.468Z,100638.81
2022-08-01T15:33:22.768Z,100628.06
2022-08-01T15:35:53.060Z,100629.06
2022-08-01T15:38:22.653Z,100629.72
2022-08-01T15:40:51.977Z,100636.81
2022-08-01T15:43:21.210Z,100638.50
2022-08-01T15:45:49.599Z,100641.38
2022-08-01T15:48:18.153Z,100642.22
2022-08-01T15:50:46.243Z,100642.22
2022-08-01T15:53:14.154Z,100641.38
2022-08-01T15:55:42.354Z,100650.31
2022-08-01T15:58:22.019Z,100634.13
2022-08-01T16:00:49.967Z,100635.13
2022-08-01T16:03:17.815Z,100639.69
2022-08-01T16:05:46.218Z,100645.06
2022-08-01T16:08:17.807Z,100632.09
2022-08-01T16:10:46.026Z,100636.81
2022-08-01T16:13:14.286Z,100643.19
2022-08-01T16:15:43.925Z,100645.91
2022-08-01T16:18:14.641Z,100635.97
2022-08-01T16:20:46.308Z,100646.59
2022-08-01T16:23:15.144Z,100633.13
2022-08-01T16:25:43.947Z,100616.56
2022-08-01T16:28:12.394Z,100633.13
2022-08-01T16:30:43.339Z,100635.81
2022-08-01T16:33:41.406Z,100643.91
2022-08-01T16:36:09.221Z,100630.41
2022-08-01T16:38:45.712Z,100618.25
2022-08-01T16:41:20.004Z,100640.50
2022-08-01T16:43:53.488Z,100649.28
2022-08-01T16:46:22.497Z,100647.59
2022-08-01T16:48:51.970Z,100646.75
2022-08-01T16:51:20.137Z,100647.59
2022-08-01T16:53:48.491Z,100646.75
2022-08-01T16:56:16.493Z,100632.41
2022-08-01T16:58:44.738Z,100638.50
2022-08-01T17:01:58.967Z,100647.59
2022-08-01T17:04:02.466Z,100649.28
2022-08-01T17:06:30.829Z,100647.28
2022-08-01T17:08:58.953Z,100660.06
2022-08-01T17:11:27.027Z,100620.06
2022-08-01T17:13:55.047Z,100649.28
2022-08-01T17:16:23.113Z,100656.69
2022-08-01T17:18:51.018Z,100659.06
2022-08-01T17:21:20.663Z,100655.00
2022-08-01T17:23:48.547Z,100655.16
2022-08-01T17:26:16.571Z,100657.53
2022-08-01T17:28:44.983Z,100662.06
2022-08-01T17:31:13.099Z,100663.94
2022-08-01T17:33:45.929Z,100662.06
2022-08-01T17:36:15.064Z,100664.44
2022-08-01T17:38:44.529Z,100660.91
2022-08-01T17:41:12.518Z,100662.06
2022-08-01T17:43:40.475Z,100665.47
2022-08-01T17:46:08.483Z,100670.84
2022-08-01T17:48:36.427Z,100670.84
2022-08-01T17:51:04.849Z,100670.84
2022-08-01T17:53:32.868Z,100676.22
2022-08-01T17:56:05.886Z,100677.91
2022-08-01T17:58:51.195Z,100680.59
2022-08-01T18:01:21.024Z,100683.31
2022-08-01T18:03:49.691Z,100675.22
2022-08-01T18:06:23.127Z,100676.94
2022-08-01T18:08:55.558Z,100677.09
2022-08-01T18:11:27.101Z,100685.34
2022-08-01T18:13:56.248Z,100693.41
2022-08-01T18:16:24.265Z,100690.03
2022-08-01T18:18:53.259Z,100691.72
2022-08-01T18:21:21.286Z,100685.66
2022-08-01T18:23:51.907Z,100696.13
2022-08-01T18:26:20.883Z,100689.00
2022-08-01T18:28:50.334Z,100701.50
2022-08-01T18:31:20.715Z,100699.78
2022-08-01T18:33:49.092Z,100691.38
2022-08-01T18:36:32.684Z,100694.25
2022-08-01T18:39:05.471Z,100692.41
2022-08-01T18:41:34.419Z,100699.47
2022-08-01T18:44:08.063Z,100699.47
2022-08-01T18:46:37.690Z,100699.47
2022-08-01T18:49:08.220Z,100699.47
2022-08-01T18:51:42.973Z,100694.25
2022-08-01T18:54:12.422Z,100687.66
2022-08-01T18:56:40.294Z,100704.88
2022-08-01T18:59:09.667Z,100716.50
2022-08-01T19:01:37.650Z,100708.56
2022-08-01T19:04:06.115Z,100708.56
2022-08-01T19:06:34.143Z,100704.88
2022-08-01T19:09:03.729Z,100704.88
2022-08-01T19:11:32.094Z,100711.25
2022-08-01T19:14:02.453Z,100711.97
2022-08-01T19:16:32.926Z,100712.13
2022-08-01T19:19:07.039Z,100719.03
2022-08-01T19:21:35.173Z,100726.09
2022-08-01T19:24:23.680Z,100722.41
2022-08-01T19:26:54.743Z,100719.03
2022-08-01T19:29:32.987Z,100719.03
2022-08-01T19:32:07.066Z,100717.66
2022-08-01T19:34:37.600Z,100731.81
2022-08-01T19:37:06.208Z,100728.44
2022-08-01T19:39:35.898Z,100726.75
2022-08-01T19:42:04.621Z,100730.13
2022-08-01T19:44:33.624Z,100731.81
2022-08-01T19:47:03.113Z,100734.50
2022-08-01T19:49:32.848Z,100735.53
2022-08-01T19:52:03.938Z,100739.88
2022-08-01T19:54:35.771Z,100737.19
2022-08-01T19:57:06.741Z,100728.44
2022-08-01T19:59:36.684Z,100728.13
2022-08-01T20:02:05.572Z,100724.41
2022-08-01T20:04:35.971Z,100727.28
2022-08-01T20:07:04.983Z,100733.53
2022-08-01T20:09:33.644Z,100718.50
2022-08-01T20:12:01.861Z,100735.19
2022-08-01T20:14:30.081Z,100728.13
2022-08-01T20:16:59.593Z,100734.50
2022-08-01T20:19:29.574Z,100724.75
2022-08-01T20:22:02.244Z,100735.53
2022-08-01T20:24:39.453Z,100732.97
2022-08-01T20:27:10.929Z,100732.44
2022-08-01T20:29:40.013Z,100727.75
2022-08-01T20:32:09.507Z,100743.91
2022-08-01T20:34:38.986Z,100743.91
2022-08-01T20:37:12.968Z,100730.75
2022-08-01T20:39:44.971Z,100746.63
2022-08-01T20:42:14.551Z,100736.47
2022-08-01T20:44:43.343Z,100746.63
2022-08-01T20:47:11.851Z,100740.19
2022-08-01T20:49:40.197Z,100748.28
2022-08-01T20:52:11.380Z,100753.69
2022-08-01T20:54:40.910Z,100757.06
2022-08-01T20:57:16.212Z,100752.00
2022-08-01T20:59:56.311Z,100753.03
2022-08-01T21:02:32.567Z,100757.56
2022-08-01T21:05:05.698Z,100725.59
2022-08-01T21:07:39.389Z,100749.78
2022-08-01T21:10:09.947Z,100764.78
2022-08-01T21:12:49.613Z,100770.16
2022-08-01T21:15:28.358Z,100771.03
2022-08-01T21:18:02.491Z,100771.03
2022-08-01T21:20:33.121Z,100773.56
2022-08-01T21:23:11.525Z,100767.31
2022-08-01T21:25:39.609Z,100765.63
2022-08-01T21:28:07.551Z,100766.50
2022-08-01T21:30:37.314Z,100756.84
2022-08-01T21:33:06.909Z,100757.72
2022-08-01T21:35:36.198Z,100756.34
2022-08-01T21:38:09.339Z,100766.81
2022-08-01T21:40:38.791Z,100751.28
2022-08-01T21:43:08.687Z,100761.41
2022-08-01T21:45:39.219Z,100765.94
2022-08-01T21:48:27.117Z,100759.72
2022-08-01T21:51:00.324Z,100773.19
2022-08-01T21:53:38.640Z,100772.19
2022-08-01T21:56:20.645Z,100774.19
2022-08-01T21:58:57.016Z,100772.19
2022-08-01T22:01:32.730Z,100766.09
2022-08-01T22:04:20.034Z,100770.47
2022-08-01T22:06:50.972Z,100768.81
2022-08-01T22:09:22.049Z,100777.75
2022-08-01T22:12:01.210Z,100774.88
2022-08-01T22:14:33.795Z,100772.19
2022-08-01T22:17:02.810Z,100777.59
2022-08-01T22:19:45.428Z,100778.41
2022-08-01T22:22:44.600Z,100777.59
2022-08-01T22:25:06.063Z,100774.03
2022-08-01T22:28:06.362Z,100777.59
2022-08-01T22:30:22.667Z,100777.59
2022-08-01T22:33:06.869Z,100768.50
2022-08-01T22:35:41.570Z,100773.19
2022-08-01T22:38:09.912Z,100771.50
2022-08-01T22:40:46.207Z,100756.97
2022-08-01T22:43:24.652Z,100760.03
2022-08-01T22:46:01.644Z,100768.81
2022-08-01T22:48:36.544Z,100775.88
2022-08-01T22:51:07.974Z,100779.59
2022-08-01T22:53:48.249Z,100781.25
2022-08-01T22:56:17.967Z,100775.03
2022-08-01T22:58:46.209Z,100775.88
2022-08-01T23:01:21.277Z,100770.47
2022-08-01T23:03:51.705Z,100770.47
2022-08-01T23:06:23.764Z,100772.19
2022-08-01T23:08:52.250Z,100770.78
2022-08-01T23:11:21.815Z,100772.19
2022-08-01T23:13:52.213Z,100774.88
2022-08-01T23:16:20.595Z,100773.19
2022-08-01T23:18:50.559Z,100766.25
2022-08-01T23:21:21.223Z,100767.13
2022-08-01T23:23:50.190Z,100766.25
2022-08-01T23:26:18.410Z,100760.88
2022-08-01T23:28:48.100Z,100769.81
2022-08-01T23:31:16.975Z,100767.13
2022-08-01T23:33:45.144Z,100761.72
2022-08-01T23:36:17.625Z,100757.16
2022-08-01T23:38:46.220Z,100721.50
2022-08-01T23:41:15.995Z,100759.72
2022-08-01T23:43:51.932Z,100757.16
2022-08-01T23:46:21.746Z,100768.81
2022-08-01T23:48:49.819Z,100763.41
2022-08-01T23:51:24.731Z,100763.41
2022-08-01T23:53:53.431Z,100760.03
2022-08-01T23:56:25.333Z,100770.47
2022-08-01T23:58:53.713Z,100768.81
